Terminal Aerodrome Forecast
Issued by NWS

Current Version | Previous Version | Text Only | Print | Product List | Glossary On
Versions: 1 2 3 4 5 6 7 8 9 10 11 12 13 14 15 16 17 18
000
FTUS45 KVEF 182300
TAFVGT
TAF
KVGT 182320Z 1900/1924 VRB04KT P6SM SCT060
     FM190300 33005KT P6SM FEW060 SCT250
     FM190900 27004KT P6SM SCT250
     FM191600 VRB05KT P6SM SCT150 BKN250=

USA.gov is the U.S. government's official web portal to all federal, state and local government web resources and services.